Time;durP1;ratioP1;P1;durP2;ratioP2;P2;SDS_P1;SDS_P2;PMS_P1;PMS_P2;Temp;Humidity;BMP_temperature;BMP_pressure;BME280_temperature;BME280_humidity;BME280_pressure;Samples;Min_cycle;Max_cycle;Signal;HPM_P1;HPM_P2
2022/08/31 00:04:47;;;;;;;11.05;7.63;;;;;;;24.14;47.38;101309.88;5052756;28;20406;-52
2022/08/31 00:07:14;;;;;;;11.18;7.43;;;;;;;23.85;47.62;101312.53;5052563;28;20218;-53
2022/08/31 00:09:40;;;;;;;8.93;7.45;;;;;;;23.58;47.79;101312.94;5052906;28;20115;-52
2022/08/31 00:12:07;;;;;;;11.75;7.80;;;;;;;23.63;48.95;101321.16;5050912;28;20078;-52
2022/08/31 00:14:33;;;;;;;10.52;7.63;;;;;;;23.71;49.10;101315.09;5031457;28;20402;-53
2022/08/31 00:16:59;;;;;;;11.00;8.00;;;;;;;23.68;48.83;101321.94;5032407;28;20044;-53
2022/08/31 00:19:25;;;;;;;11.10;7.68;;;;;;;23.31;49.27;101325.09;5032468;28;20064;-53
2022/08/31 00:21:52;;;;;;;11.55;8.13;;;;;;;23.29;50.08;101327.28;5032779;28;20021;-52
2022/08/31 00:24:18;;;;;;;9.05;7.18;;;;;;;23.17;51.01;101324.06;5035237;28;20087;-53
2022/08/31 00:26:44;;;;;;;11.05;7.82;;;;;;;23.06;51.20;101317.81;5033707;28;20112;-50
2022/08/31 00:29:12;;;;;;;9.48;7.93;;;;;;;22.90;51.07;101327.94;5032304;28;20093;-51
2022/08/31 00:31:38;;;;;;;11.25;7.60;;;;;;;22.80;51.26;101319.75;5031383;28;20570;-52
2022/08/31 00:34:04;;;;;;;8.23;7.15;;;;;;;22.65;52.32;101322.50;5035372;28;20540;-51
2022/08/31 00:36:31;;;;;;;9.07;7.03;;;;;;;22.69;53.15;101331.78;5049986;28;20043;-49
2022/08/31 00:38:58;;;;;;;11.02;8.40;;;;;;;22.63;52.88;101327.44;5034274;28;20068;-50
2022/08/31 00:41:30;;;;;;;8.43;7.13;;;;;;;22.71;52.81;101326.88;5032214;28;20101;-51
2022/08/31 00:43:59;;;;;;;10.85;7.82;;;;;;;22.65;52.84;101317.88;5051796;28;20049;-50
2022/08/31 00:46:32;;;;;;;14.50;8.50;;;;;;;22.67;52.84;101325.78;5034972;28;20450;-50
2022/08/31 00:49:06;;;;;;;9.40;7.93;;;;;;;22.47;52.63;101320.34;5035389;28;20021;-53
2022/08/31 00:51:42;;;;;;;11.57;8.50;;;;;;;22.52;52.28;101321.16;5032052;28;20112;-49
2022/08/31 00:54:11;;;;;;;12.60;8.63;;;;;;;22.27;53.02;101319.28;5031681;28;20026;-51
2022/08/31 00:56:40;;;;;;;10.95;8.02;;;;;;;22.30;52.66;101331.53;5030709;28;20100;-48
2022/08/31 00:59:06;;;;;;;8.98;7.40;;;;;;;22.31;53.03;101322.25;5031621;28;20049;-48
2022/08/31 01:01:33;;;;;;;9.57;7.75;;;;;;;22.19;53.05;101319.78;5031956;28;20021;-53
2022/08/31 01:03:59;;;;;;;9.52;8.05;;;;;;;22.07;53.44;101319.22;5031579;28;20083;-49
2022/08/31 01:06:26;;;;;;;9.20;7.70;;;;;;;21.78;54.19;101319.72;5030814;28;20034;-55
2022/08/31 01:08:56;;;;;;;9.45;7.85;;;;;;;21.67;54.87;101325.41;5031515;28;20533;-51
2022/08/31 01:11:23;;;;;;;9.20;7.65;;;;;;;21.76;54.69;101326.50;5045837;28;20028;-53
2022/08/31 01:13:50;;;;;;;10.85;8.10;;;;;;;21.56;55.80;101328.09;5041666;28;20104;-51
2022/08/31 01:16:25;;;;;;;8.77;7.68;;;;;;;21.68;55.57;101330.59;5041698;28;20036;-51
2022/08/31 01:18:56;;;;;;;9.23;7.88;;;;;;;21.71;54.63;101324.63;5029639;28;20033;-52
2022/08/31 01:21:38;;;;;;;10.43;7.60;;;;;;;21.78;54.25;101308.00;5037300;28;20111;-51
2022/08/31 01:24:06;;;;;;;10.32;7.18;;;;;;;21.57;55.01;101318.03;5038909;28;20498;-49
2022/08/31 01:26:32;;;;;;;8.93;7.55;;;;;;;21.52;55.32;101315.28;5036403;28;20033;-49
2022/08/31 01:29:04;;;;;;;10.57;7.65;;;;;;;21.45;55.71;101309.28;5049348;28;20510;-50
2022/08/31 01:31:42;;;;;;;8.40;7.45;;;;;;;21.18;56.34;101315.66;5041070;28;20030;-49
2022/08/31 01:34:08;;;;;;;10.40;7.47;;;;;;;21.17;56.68;101311.31;5031931;28;20491;-50
2022/08/31 01:36:37;;;;;;;8.02;7.18;;;;;;;21.04;56.69;101309.06;5044473;28;20082;-50
2022/08/31 01:39:04;;;;;;;10.13;7.40;;;;;;;21.06;57.01;101306.91;5051548;28;20036;-51
2022/08/31 01:41:31;;;;;;;10.10;7.40;;;;;;;21.07;57.30;101308.53;5051217;28;20074;-51
2022/08/31 01:43:57;;;;;;;10.10;7.90;;;;;;;21.03;57.39;101305.50;5041801;28;20025;-51
2022/08/31 01:46:24;;;;;;;10.02;7.10;;;;;;;20.88;58.00;101315.53;5031296;28;20028;-51
2022/08/31 01:48:51;;;;;;;12.15;8.00;;;;;;;20.66;58.48;101316.47;5045401;28;20563;-50
2022/08/31 01:51:21;;;;;;;9.35;7.93;;;;;;;20.25;60.72;101329.69;5051436;28;20029;-53
2022/08/31 01:53:50;;;;;;;8.43;6.80;;;;;;;20.25;60.63;101324.25;5051412;28;20036;-53
2022/08/31 01:56:21;;;;;;;10.27;7.45;;;;;;;20.32;60.83;101329.47;5051013;28;20090;-50
2022/08/31 01:58:47;;;;;;;11.07;7.43;;;;;;;19.95;62.08;101315.84;5051590;28;20706;-51
2022/08/31 02:01:14;;;;;;;12.27;6.70;;;;;;;19.91;62.33;101328.28;5042951;28;20037;-52
2022/08/31 02:03:40;;;;;;;10.65;7.55;;;;;;;19.71;63.47;101328.88;5031584;28;20028;-51
2022/08/31 02:06:11;;;;;;;9.27;7.38;;;;;;;19.44;63.07;101326.13;5043143;28;20032;-50
2022/08/31 02:08:39;;;;;;;8.95;7.57;;;;;;;19.56;62.90;101328.69;5038591;28;20036;-51
2022/08/31 02:11:06;;;;;;;8.00;6.70;;;;;;;19.53;63.25;101328.09;5047029;28;20047;-52
2022/08/31 02:13:34;;;;;;;8.57;6.82;;;;;;;19.07;64.50;101326.72;5035803;28;20471;-49
2022/08/31 02:16:01;;;;;;;8.30;6.57;;;;;;;18.85;65.74;101325.88;5032240;28;20437;-54
2022/08/31 02:18:27;;;;;;;10.00;7.72;;;;;;;19.07;65.22;101324.00;5034730;28;20039;-55
2022/08/31 02:20:54;;;;;;;8.77;6.75;;;;;;;19.04;64.78;101323.69;5030527;28;20022;-55
2022/08/31 02:23:20;;;;;;;11.63;7.28;;;;;;;19.26;63.96;101328.03;5031314;28;20441;-54
2022/08/31 02:25:46;;;;;;;8.02;7.22;;;;;;;19.15;64.32;101328.16;5034201;28;20029;-53
2022/08/31 02:28:13;;;;;;;10.02;6.90;;;;;;;19.02;64.59;101328.53;5034384;28;20073;-54
2022/08/31 02:30:41;;;;;;;7.80;6.95;;;;;;;18.94;65.05;101324.38;5034334;28;20426;-55
2022/08/31 02:33:08;;;;;;;8.23;7.40;;;;;;;18.84;65.43;101330.47;5034641;28;20022;-54
2022/08/31 02:35:34;;;;;;;9.60;7.20;;;;;;;18.75;65.81;101329.25;5033873;28;20033;-55
2022/08/31 02:38:01;;;;;;;11.32;7.60;;;;;;;18.44;67.23;101326.03;5034254;28;20028;-55
2022/08/31 02:40:27;;;;;;;9.57;7.38;;;;;;;18.37;67.57;101329.97;5034337;28;20030;-54
2022/08/31 02:42:53;;;;;;;9.88;7.85;;;;;;;18.22;68.30;101333.25;5034509;28;20026;-55
2022/08/31 02:45:20;;;;;;;8.57;7.25;;;;;;;18.37;67.96;101333.50;5034521;28;20049;-54
2022/08/31 02:47:46;;;;;;;8.45;7.65;;;;;;;18.52;66.99;101340.25;5034516;28;20033;-55
2022/08/31 02:50:13;;;;;;;9.70;6.95;;;;;;;18.28;68.17;101345.00;5034744;28;20041;-54
2022/08/31 02:52:39;;;;;;;8.45;7.55;;;;;;;18.31;68.13;101350.72;5034517;28;20079;-55
2022/08/31 02:55:06;;;;;;;10.60;8.23;;;;;;;18.34;67.59;101344.03;5033856;28;20112;-55
2022/08/31 02:57:32;;;;;;;11.07;7.50;;;;;;;18.11;68.91;101345.78;5034039;28;20097;-55
2022/08/31 02:59:58;;;;;;;8.68;7.00;;;;;;;18.36;68.07;101341.88;5034171;28;20025;-56
2022/08/31 03:02:24;;;;;;;9.38;7.50;;;;;;;18.07;68.95;101355.47;5050311;28;20017;-54
2022/08/31 03:04:51;;;;;;;7.65;6.72;;;;;;;18.18;68.84;101362.72;5053916;28;20028;-55
2022/08/31 03:07:17;;;;;;;10.77;8.68;;;;;;;18.04;69.44;101357.84;5053518;28;20029;-54
2022/08/31 03:09:44;;;;;;;8.63;7.50;;;;;;;18.02;69.10;101360.78;5049425;28;20049;-55
2022/08/31 03:12:10;;;;;;;9.35;7.55;;;;;;;18.08;68.83;101359.81;5033411;28;20056;-55
2022/08/31 03:14:36;;;;;;;14.85;7.45;;;;;;;18.14;68.29;101369.69;5041548;28;20036;-51
2022/08/31 03:17:03;;;;;;;9.38;7.97;;;;;;;17.96;69.19;101366.38;5033214;28;20396;-51
2022/08/31 03:19:29;;;;;;;11.10;7.95;;;;;;;18.08;68.92;101364.41;5039069;28;20395;-55
2022/08/31 03:21:55;;;;;;;11.57;7.90;;;;;;;17.89;69.71;101364.63;5035617;28;20022;-51
2022/08/31 03:24:22;;;;;;;10.55;7.90;;;;;;;17.72;70.46;101368.31;5031769;28;20084;-54
2022/08/31 03:26:48;;;;;;;8.82;7.85;;;;;;;17.79;70.58;101374.44;5037939;28;20021;-54
2022/08/31 03:29:14;;;;;;;9.45;7.80;;;;;;;17.86;69.97;101375.94;5039663;28;20072;-55
2022/08/31 03:31:41;;;;;;;12.90;7.80;;;;;;;17.74;70.09;101380.56;5040696;28;20087;-55
2022/08/31 03:34:07;;;;;;;9.43;7.70;;;;;;;17.67;69.83;101380.69;5039683;28;20111;-53
2022/08/31 03:36:33;;;;;;;10.82;8.27;;;;;;;17.58;70.31;101384.00;5036421;28;20442;-54
2022/08/31 03:39:00;;;;;;;11.30;7.72;;;;;;;17.46;71.32;101391.31;5050641;28;20040;-52
2022/08/31 03:41:26;;;;;;;10.40;7.70;;;;;;;17.46;71.79;101388.63;5041107;28;20032;-55
2022/08/31 03:43:53;;;;;;;12.15;8.35;;;;;;;17.55;71.36;101387.19;5035998;28;20051;-54
2022/08/31 03:46:19;;;;;;;10.82;8.30;;;;;;;17.48;71.37;101389.19;5042910;28;20054;-54
2022/08/31 03:48:49;;;;;;;9.63;8.05;;;;;;;17.58;71.05;101384.00;5053500;28;20032;-53
2022/08/31 03:51:17;;;;;;;10.23;8.25;;;;;;;17.59;70.97;101389.16;5053387;28;20059;-52
2022/08/31 03:53:43;;;;;;;10.52;7.90;;;;;;;17.56;71.26;101389.66;5041928;28;20029;-53
2022/08/31 03:56:09;;;;;;;9.90;7.60;;;;;;;17.36;72.11;101389.22;5035509;28;20506;-54
2022/08/31 03:58:37;;;;;;;9.63;7.68;;;;;;;17.32;72.37;101404.25;5039651;28;20044;-53
2022/08/31 04:01:04;;;;;;;9.55;7.35;;;;;;;17.37;72.27;101401.66;5037109;28;20132;-52
2022/08/31 04:03:31;;;;;;;11.85;7.90;;;;;;;17.26;73.08;101402.50;5033153;28;20018;-53
2022/08/31 04:05:57;;;;;;;10.02;8.02;;;;;;;17.32;73.15;101404.25;5045080;28;20047;-53
2022/08/31 04:08:24;;;;;;;9.10;7.28;;;;;;;17.36;73.28;101405.44;5032619;28;20029;-54
2022/08/31 04:10:52;;;;;;;9.50;7.75;;;;;;;17.34;73.26;101405.69;5033099;28;20029;-53
2022/08/31 04:13:18;;;;;;;9.27;7.57;;;;;;;17.41;73.24;101408.25;5049469;28;20094;-54
2022/08/31 04:15:45;;;;;;;9.32;7.65;;;;;;;17.49;72.95;101405.22;5052216;28;20399;-53
2022/08/31 04:18:12;;;;;;;9.85;7.80;;;;;;;17.27;73.31;101409.59;5048006;28;20036;-54
2022/08/31 04:20:39;;;;;;;11.20;7.80;;;;;;;17.24;73.87;101405.47;5052410;28;20395;-55
2022/08/31 04:23:06;;;;;;;9.10;7.43;;;;;;;17.13;74.27;101406.28;5052690;28;20035;-54
2022/08/31 04:25:37;;;;;;;10.05;7.43;;;;;;;17.29;73.85;101405.56;5052416;28;20076;-53
2022/08/31 04:28:03;;;;;;;9.05;7.82;;;;;;;17.23;74.15;101409.22;5052012;28;20053;-54
2022/08/31 04:30:29;;;;;;;13.52;8.10;;;;;;;16.97;74.81;101413.22;5044825;28;20032;-52
2022/08/31 04:32:56;;;;;;;10.82;7.78;;;;;;;16.86;75.50;101414.03;5034182;28;20168;-55
2022/08/31 04:35:22;;;;;;;9.40;7.88;;;;;;;16.85;75.62;101420.50;5029679;28;20034;-54
2022/08/31 04:37:48;;;;;;;9.70;7.50;;;;;;;16.56;76.83;101425.72;5032262;28;20123;-54
2022/08/31 04:40:18;;;;;;;9.60;7.85;;;;;;;16.66;76.26;101427.84;5032460;28;20037;-53
2022/08/31 04:42:48;;;;;;;9.07;7.88;;;;;;;16.60;76.59;101429.59;5046698;28;20537;-53
2022/08/31 04:45:16;;;;;;;8.63;7.18;;;;;;;16.60;76.72;101429.59;5052271;28;20061;-53
2022/08/31 04:47:48;;;;;;;9.18;7.78;;;;;;;16.36;77.78;101434.09;5050380;28;20039;-55
2022/08/31 04:50:15;;;;;;;9.60;7.50;;;;;;;16.41;77.60;101438.00;5052219;28;20024;-55
2022/08/31 04:52:43;;;;;;;10.43;7.13;;;;;;;16.46;76.76;101425.44;5048824;28;20036;-52
2022/08/31 04:55:11;;;;;;;7.97;7.18;;;;;;;16.37;77.25;101437.63;5040372;28;20030;-54
2022/08/31 04:57:39;;;;;;;9.18;7.88;;;;;;;16.37;77.12;101437.63;5052371;28;20398;-54
2022/08/31 05:00:06;;;;;;;8.93;7.25;;;;;;;16.38;76.72;101436.59;5039711;28;20395;-54
2022/08/31 05:02:33;;;;;;;8.20;6.95;;;;;;;16.37;77.08;101435.75;5032163;28;20057;-53
2022/08/31 05:05:00;;;;;;;9.02;7.15;;;;;;;16.40;76.36;101434.47;5031581;28;20026;-54
2022/08/31 05:07:26;;;;;;;9.38;7.30;;;;;;;16.29;77.48;101430.69;5037512;28;20028;-54
2022/08/31 05:09:53;;;;;;;8.70;7.10;;;;;;;16.23;77.52;101428.91;5052573;28;20107;-53
2022/08/31 05:12:19;;;;;;;11.15;7.65;;;;;;;15.98;78.31;101437.09;5039845;28;20121;-54
2022/08/31 05:14:46;;;;;;;9.00;8.10;;;;;;;16.18;77.38;101436.84;5031775;28;20030;-53
2022/08/31 05:17:13;;;;;;;7.90;7.10;;;;;;;16.26;77.00;101433.00;5031581;28;20060;-54
2022/08/31 05:19:40;;;;;;;9.60;8.52;;;;;;;16.16;77.41;101435.41;5032408;28;20065;-54
2022/08/31 05:22:06;;;;;;;9.70;7.75;;;;;;;16.14;77.21;101434.84;5032891;28;20479;-55
2022/08/31 05:24:35;;;;;;;9.10;7.97;;;;;;;15.99;77.66;101430.69;5038617;28;20425;-55
2022/08/31 05:27:02;;;;;;;10.60;7.65;;;;;;;16.22;77.03;101435.34;5051896;28;20028;-53
2022/08/31 05:29:28;;;;;;;8.07;6.95;;;;;;;16.17;77.11;101429.81;5051589;28;20045;-54
2022/08/31 05:31:55;;;;;;;8.93;7.22;;;;;;;15.99;77.26;101433.38;5046377;28;20049;-54
2022/08/31 05:34:23;;;;;;;10.63;7.90;;;;;;;16.35;76.32;101432.47;5051273;28;20113;-53
2022/08/31 05:36:52;;;;;;;8.60;7.55;;;;;;;16.27;76.02;101423.88;5051987;28;20486;-53
2022/08/31 05:39:18;;;;;;;8.48;7.05;;;;;;;16.20;76.61;101440.16;5051291;28;20037;-52
2022/08/31 05:41:46;;;;;;;12.18;7.63;;;;;;;16.29;76.23;101437.97;5044104;28;20038;-53
2022/08/31 05:44:14;;;;;;;10.32;7.82;;;;;;;16.19;76.69;101437.69;5029269;28;20030;-53
2022/08/31 05:46:40;;;;;;;10.20;7.18;;;;;;;15.99;77.25;101438.78;5031523;28;20038;-50
2022/08/31 05:49:07;;;;;;;10.70;8.68;;;;;;;16.09;76.80;101438.22;5046006;28;20029;-52
2022/08/31 05:51:34;;;;;;;11.75;7.22;;;;;;;15.99;77.29;101438.78;5051404;28;20104;-52
2022/08/31 05:54:01;;;;;;;11.63;7.97;;;;;;;15.82;77.97;101437.72;5051602;28;20028;-51
2022/08/31 05:56:27;;;;;;;9.10;7.00;;;;;;;15.78;78.19;101442.75;5031586;28;20494;-53
2022/08/31 05:58:55;;;;;;;9.95;7.43;;;;;;;15.97;77.63;101440.88;5033563;28;20040;-53
2022/08/31 06:01:30;;;;;;;11.07;7.78;;;;;;;16.10;77.02;101446.13;5035271;28;20029;-52
2022/08/31 06:03:56;;;;;;;;;;;;;;;16.02;77.11;101443.72;5035924;28;20025;-53
2022/08/31 06:06:23;;;;;;;10.70;7.60;;;;;;;15.97;77.71;101431.94;5035318;28;19927;-52
2022/08/31 06:08:50;;;;;;;10.85;8.00;;;;;;;16.05;76.98;101439.75;5035417;28;20025;-52
2022/08/31 06:11:19;;;;;;;12.75;8.43;;;;;;;16.13;76.42;101439.41;5035525;28;20036;-53
2022/08/31 06:13:49;;;;;;;8.98;6.90;;;;;;;16.20;76.34;101434.75;5035343;28;20127;-53
2022/08/31 06:16:16;;;;;;;10.32;7.30;;;;;;;15.99;77.26;101436.09;5035873;28;20044;-54
2022/08/31 06:18:52;;;;;;;7.65;6.85;;;;;;;15.85;77.91;101431.88;5051062;28;20029;-53
2022/08/31 06:21:25;;;;;;;8.52;6.93;;;;;;;16.00;77.06;101437.72;5055009;28;20021;-53
2022/08/31 06:23:56;;;;;;;8.30;7.18;;;;;;;16.12;75.87;101431.56;5055096;28;20199;-54
2022/08/31 06:26:25;;;;;;;11.63;7.22;;;;;;;16.07;75.97;101430.34;5054948;28;20026;-54
2022/08/31 06:28:55;;;;;;;11.13;8.00;;;;;;;15.98;76.00;101428.19;5054422;28;20041;-53
2022/08/31 06:31:31;;;;;;;9.38;7.35;;;;;;;16.04;76.13;101422.69;5054852;28;20561;-55
2022/08/31 06:33:59;;;;;;;8.95;7.65;;;;;;;15.89;75.97;101427.69;5053798;28;20025;-53
2022/08/31 06:36:27;;;;;;;9.02;7.60;;;;;;;15.80;76.61;101429.03;5054704;28;20033;-52
2022/08/31 06:38:55;;;;;;;12.38;8.23;;;;;;;15.91;76.17;101430.16;5054822;28;20553;-54
2022/08/31 06:41:25;;;;;;;8.75;7.85;;;;;;;15.83;76.08;101429.41;5054474;28;20087;-54
2022/08/31 06:43:52;;;;;;;8.30;7.45;;;;;;;16.00;75.81;101434.19;5054693;28;20434;-55
2022/08/31 06:46:20;;;;;;;10.98;8.65;;;;;;;15.88;75.82;101434.16;5054076;28;20021;-55
2022/08/31 06:48:49;;;;;;;10.43;7.93;;;;;;;15.81;75.97;101433.38;5054298;28;20024;-54
2022/08/31 06:51:16;;;;;;;8.25;7.15;;;;;;;15.77;76.75;101433.03;5053921;28;20376;-53
2022/08/31 06:53:43;;;;;;;10.35;7.90;;;;;;;15.86;76.44;101433.53;5054247;28;20198;-54
2022/08/31 06:56:24;;;;;;;12.55;8.15;;;;;;;15.99;75.91;101436.09;5054230;28;20028;-53
2022/08/31 06:58:51;;;;;;;10.02;7.90;;;;;;;15.94;75.91;101432.41;5054372;28;20384;-54
2022/08/31 07:01:21;;;;;;;10.55;8.05;;;;;;;15.97;75.68;101430.06;5053100;28;20025;-53
2022/08/31 07:03:49;;;;;;;9.45;7.75;;;;;;;15.97;75.94;101424.66;5045433;28;20124;-54
2022/08/31 07:06:30;;;;;;;11.35;8.68;;;;;;;16.12;75.57;101423.44;5036932;28;20037;-54
2022/08/31 07:08:59;;;;;;;10.52;8.07;;;;;;;15.91;75.89;101430.97;5040053;28;20026;-54
2022/08/31 07:11:33;;;;;;;11.45;8.77;;;;;;;16.01;75.78;101425.88;5033230;28;20025;-52
2022/08/31 07:14:00;;;;;;;10.25;8.20;;;;;;;16.07;75.34;101422.25;5034378;28;20022;-54
2022/08/31 07:16:27;;;;;;;9.18;7.72;;;;;;;15.98;75.51;101426.31;5033995;28;20447;-53
2022/08/31 07:18:56;;;;;;;9.48;7.65;;;;;;;16.17;74.65;101423.59;5034087;28;20430;-53
2022/08/31 07:21:25;;;;;;;9.55;7.40;;;;;;;16.00;75.17;101421.53;5045599;28;20047;-54
2022/08/31 07:23:53;;;;;;;9.18;7.70;;;;;;;15.81;75.40;101419.88;5053411;28;20082;-55
2022/08/31 07:26:37;;;;;;;9.82;7.93;;;;;;;15.85;75.33;101421.09;5049242;28;20018;-53
2022/08/31 07:29:05;;;;;;;10.18;7.95;;;;;;;15.91;74.81;101422.06;5033171;28;20041;-54
2022/08/31 07:31:41;;;;;;;8.98;7.90;;;;;;;15.82;74.42;101426.91;5032769;28;20499;-54
2022/08/31 07:34:09;;;;;;;9.93;7.95;;;;;;;15.76;74.72;101425.13;5033737;28;20104;-55
2022/08/31 07:42:08;;;;;;;11.35;7.60;;;;;;;15.70;74.80;101418.75;5034093;28;20037;-53
2022/08/31 07:42:16;;;;;;;13.18;8.95;;;;;;;15.65;74.15;101425.88;5034825;28;20088;-54
2022/08/31 07:44:46;;;;;;;9.10;7.50;;;;;;;15.65;74.07;101412.41;5053504;28;20406;-52
2022/08/31 07:47:13;;;;;;;10.00;7.82;;;;;;;15.56;73.90;101418.06;5053372;28;20021;-52
2022/08/31 07:49:49;;;;;;;10.73;8.38;;;;;;;15.57;73.68;101408.94;5034241;28;20418;-53
2022/08/31 07:52:22;;;;;;;11.10;8.52;;;;;;;15.64;73.42;101413.44;5034065;28;20037;-53
2022/08/31 07:54:50;;;;;;;9.18;8.13;;;;;;;15.57;73.41;101411.63;5050387;28;20079;-53
2022/08/31 07:57:18;;;;;;;12.05;8.68;;;;;;;15.44;73.61;101414.47;5053376;28;20072;-53
2022/08/31 07:59:48;;;;;;;11.57;8.82;;;;;;;15.38;73.93;101415.38;5052128;28;20033;-52
2022/08/31 08:02:15;;;;;;;13.38;9.07;;;;;;;15.38;73.91;101412.69;5053755;28;20021;-54
2022/08/31 08:04:43;;;;;;;11.57;9.10;;;;;;;15.33;74.00;101415.22;5051918;28;20087;-52
2022/08/31 08:07:11;;;;;;;12.65;9.10;;;;;;;15.34;74.03;101410.66;5050757;28;20052;-52
2022/08/31 08:09:38;;;;;;;12.25;8.45;;;;;;;15.28;73.92;101415.88;5053202;28;20398;-52
2022/08/31 08:12:05;;;;;;;10.57;8.45;;;;;;;15.33;74.04;101412.53;5051577;28;20025;-52
2022/08/31 08:14:38;;;;;;;12.80;9.40;;;;;;;15.32;73.66;101418.94;5052635;28;20025;-52
2022/08/31 08:17:07;;;;;;;10.90;9.00;;;;;;;15.30;73.52;101418.34;5047241;28;20112;-52
2022/08/31 08:19:33;;;;;;;12.40;9.00;;;;;;;15.26;73.82;101419.84;5051231;28;20431;-52
2022/08/31 08:22:02;;;;;;;11.60;8.98;;;;;;;15.22;73.60;101424.06;5046313;28;20090;-52
2022/08/31 08:24:30;;;;;;;11.48;8.80;;;;;;;15.20;73.70;101423.44;5052729;28;20058;-52
2022/08/31 08:26:57;;;;;;;10.55;8.80;;;;;;;15.20;73.38;101418.03;5042458;28;20037;-51
2022/08/31 08:29:23;;;;;;;11.85;8.80;;;;;;;15.18;73.25;101422.84;5032576;28;20080;-52
2022/08/31 08:31:53;;;;;;;11.20;8.93;;;;;;;15.18;73.43;101420.13;5031334;28;20700;-52
2022/08/31 08:34:24;;;;;;;10.88;8.30;;;;;;;15.13;73.30;101417.28;5032283;28;20182;-52
2022/08/31 08:36:51;;;;;;;12.38;9.48;;;;;;;15.13;73.16;101414.59;5035760;28;20071;-52
2022/08/31 08:39:18;;;;;;;10.05;8.45;;;;;;;15.04;73.16;101414.03;5031366;28;20087;-52
2022/08/31 08:41:46;;;;;;;10.82;8.63;;;;;;;14.96;73.36;101407.06;5044892;28;20121;-52
2022/08/31 08:44:16;;;;;;;11.90;9.15;;;;;;;14.99;73.22;101412.03;5052098;28;20103;-51
2022/08/31 08:46:51;;;;;;;11.95;9.15;;;;;;;14.93;73.22;101417.44;5050699;28;20108;-52
2022/08/31 08:49:42;;;;;;;11.23;9.32;;;;;;;14.93;73.22;101423.66;5052416;28;20033;-52
2022/08/31 08:52:26;;;;;;;11.82;8.88;;;;;;;14.87;73.24;101419.16;5029616;28;20033;-51
2022/08/31 08:54:54;;;;;;;11.88;9.07;;;;;;;14.84;73.08;101416.91;5032110;28;20475;-51
2022/08/31 08:57:25;;;;;;;12.43;9.30;;;;;;;14.82;73.17;101424.38;5047815;28;20040;-52
2022/08/31 08:59:57;;;;;;;10.93;8.90;;;;;;;14.76;73.12;101414.47;5052201;28;20513;-51
2022/08/31 09:03:00;;;;;;;13.25;9.55;;;;;;;14.72;73.08;101418.69;5035309;28;20037;-52
2022/08/31 09:05:48;;;;;;;9.93;8.27;;;;;;;14.76;73.37;101414.47;5031386;28;20029;-52
2022/08/31 09:08:31;;;;;;;11.70;10.10;;;;;;;14.63;74.10;101409.19;5044369;28;20033;-52
2022/08/31 09:11:16;;;;;;;13.18;9.95;;;;;;;14.56;74.30;101416.53;5034613;28;20510;-52
2022/08/31 09:13:42;;;;;;;;;;;;;;;14.60;74.30;101417.72;5032448;28;20389;-51
2022/08/31 09:16:46;;;;;;;12.40;9.80;;;;;;;14.57;74.40;101412.78;5031694;28;19923;-52
2022/08/31 09:19:15;;;;;;;11.60;9.02;;;;;;;14.58;74.28;101409.03;5042833;28;20086;-51
2022/08/31 09:21:54;;;;;;;12.25;10.05;;;;;;;14.61;74.20;101406.75;5049476;28;20078;-52
2022/08/31 09:24:29;;;;;;;13.02;9.60;;;;;;;14.49;74.55;101406.63;5051435;28;20108;-51
2022/08/31 09:27:19;;;;;;;11.48;9.70;;;;;;;14.47;74.54;101406.00;5049434;28;20438;-52
2022/08/31 09:29:57;;;;;;;11.55;9.90;;;;;;;14.50;74.06;101394.78;5051593;28;20033;-51
2022/08/31 09:32:48;;;;;;;12.45;10.25;;;;;;;14.47;73.65;101392.53;5049702;28;20025;-51
2022/08/31 09:35:35;;;;;;;11.48;9.43;;;;;;;14.35;73.65;101401.50;5049541;28;20505;-49
2022/08/31 09:38:08;;;;;;;12.35;9.25;;;;;;;14.30;73.58;101396.75;5051730;28;20037;-49
2022/08/31 09:40:47;;;;;;;13.32;9.73;;;;;;;14.29;73.78;101396.97;5048016;28;20310;-51
2022/08/31 09:43:36;;;;;;;12.52;9.75;;;;;;;14.27;73.41;101387.25;5031338;28;20443;-50
2022/08/31 09:46:26;;;;;;;12.52;10.05;;;;;;;14.21;73.76;101393.50;5034335;28;20021;-51
2022/08/31 09:48:57;;;;;;;12.10;10.10;;;;;;;14.16;73.77;101396.03;5031156;28;20467;-49
2022/08/31 09:51:29;;;;;;;13.95;10.68;;;;;;;14.19;73.52;101395.56;5043012;28;20033;-49
2022/08/31 09:56:58;;;;;;;13.90;10.25;;;;;;;14.29;73.26;101389.72;5047229;28;20051;-49
2022/08/31 09:59:40;;;;;;;12.07;10.00;;;;;;;14.24;73.38;101393.06;5051540;28;20090;-51
2022/08/31 10:02:32;;;;;;;11.35;9.88;;;;;;;14.13;73.58;101382.16;5050249;28;20040;-52
2022/08/31 10:05:05;;;;;;;12.82;9.80;;;;;;;14.10;73.61;101387.97;5043226;28;20048;-51
2022/08/31 10:07:57;;;;;;;13.02;10.27;;;;;;;14.09;73.38;101391.69;5051349;28;20452;-52
2022/08/31 10:10:29;;;;;;;12.57;10.45;;;;;;;13.98;73.38;101385.97;5051561;28;20063;-51
2022/08/31 10:13:16;;;;;;;12.48;10.32;;;;;;;13.99;73.43;101376.88;5050319;28;20021;-51
2022/08/31 10:16:24;;;;;;;13.68;10.20;;;;;;;13.96;73.54;101376.47;5031246;28;20087;-52
2022/08/31 10:19:05;;;;;;;15.13;9.88;;;;;;;13.92;73.60;101384.13;5021040;28;20096;-51
2022/08/31 10:21:44;;;;;;;11.13;8.93;;;;;;;13.92;73.85;101384.13;5031285;28;20025;-52
2022/08/31 10:24:27;;;;;;;11.23;9.68;;;;;;;13.92;74.17;101388.69;5030979;28;20071;-52
2022/08/31 10:27:19;;;;;;;13.05;11.07;;;;;;;13.88;73.96;101392.84;5031307;28;20109;-52
2022/08/31 10:29:48;;;;;;;11.85;9.75;;;;;;;13.84;73.47;101392.47;5022687;28;20526;-52
2022/08/31 10:32:44;;;;;;;12.93;10.13;;;;;;;13.81;74.49;101387.50;5031258;28;20037;-50
2022/08/31 10:35:22;;;;;;;12.88;11.05;;;;;;;13.81;74.62;101378.59;5023294;28;20042;-51
2022/08/31 10:37:48;;;;;;;13.88;10.63;;;;;;;13.85;74.05;101380.66;5030976;28;20548;-51
2022/08/31 10:40:20;;;;;;;12.05;10.05;;;;;;;13.81;73.72;101383.97;5031196;28;20037;-52
2022/08/31 10:43:03;;;;;;;15.45;11.23;;;;;;;13.73;74.02;101385.88;5031032;28;20096;-51
2022/08/31 10:45:33;;;;;;;11.98;9.93;;;;;;;13.72;73.87;101386.09;5049083;28;20471;-51
2022/08/31 10:48:01;;;;;;;13.25;9.88;;;;;;;13.71;73.75;101387.13;5044632;28;20036;-51
2022/08/31 10:50:43;;;;;;;14.70;10.63;;;;;;;13.65;74.46;101394.19;5034477;28;20037;-51
2022/08/31 10:53:32;;;;;;;16.67;10.52;;;;;;;13.70;73.72;101390.84;5034090;28;20048;-51
2022/08/31 10:56:11;;;;;;;12.60;9.50;;;;;;;13.63;73.64;101390.06;5033998;28;20055;-51
2022/08/31 10:58:43;;;;;;;14.93;9.90;;;;;;;13.64;73.98;101391.72;5034374;28;20025;-51
2022/08/31 11:01:34;;;;;;;14.88;11.38;;;;;;;13.56;74.88;101383.88;5034540;28;20225;-51
2022/08/31 11:04:33;;;;;;;13.43;10.57;;;;;;;13.50;74.74;101390.13;5034572;28;20072;-51
2022/08/31 11:07:11;;;;;;;12.68;9.65;;;;;;;13.55;74.50;101382.22;5034543;28;20112;-51
2022/08/31 11:09:53;;;;;;;12.43;10.35;;;;;;;13.54;74.39;101392.16;5034160;28;20033;-51
2022/08/31 11:12:40;;;;;;;11.82;9.38;;;;;;;13.48;74.47;101393.81;5034350;28;20105;-51
2022/08/31 11:15:16;;;;;;;11.00;9.85;;;;;;;13.61;74.41;101392.16;5033921;28;20029;-52
2022/08/31 11:17:57;;;;;;;13.95;11.02;;;;;;;13.54;74.33;101394.00;5034137;28;20460;-50
2022/08/31 11:21:06;;;;;;;12.15;9.50;;;;;;;13.48;74.00;101391.13;5032835;28;20025;-50
2022/08/31 11:23:41;;;;;;;11.32;9.38;;;;;;;13.46;74.06;101387.84;5033684;28;20033;-50
2022/08/31 11:26:32;;;;;;;13.35;9.65;;;;;;;13.54;73.51;101394.84;5033466;28;20106;-50
2022/08/31 11:29:40;;;;;;;16.55;10.82;;;;;;;13.55;73.64;101393.81;5033066;28;20088;-51
2022/08/31 11:32:21;;;;;;;12.05;9.75;;;;;;;13.47;73.68;101391.34;5044790;28;20041;-49
2022/08/31 11:34:54;;;;;;;13.85;10.77;;;;;;;13.46;74.23;101401.28;5052664;28;20025;-51
2022/08/31 11:37:50;;;;;;;13.75;11.02;;;;;;;13.68;75.25;101398.31;5044960;28;20387;-51
2022/08/31 11:40:43;;;;;;;17.58;12.32;;;;;;;13.63;75.73;101395.44;5033052;28;20040;-51
2022/08/31 11:43:31;;;;;;;13.18;10.30;;;;;;;13.71;76.32;101397.88;5033507;28;20023;-51
2022/08/31 11:46:22;;;;;;;16.25;12.07;;;;;;;13.73;76.87;101403.88;5040215;28;20171;-51
2022/08/31 11:48:54;;;;;;;16.63;12.02;;;;;;;13.80;77.29;101393.91;5053256;28;20120;-50